Terminal Aerodrome Forecast
Issued by NWS

Home | Current Version | Previous Version | Text Only | Print | Product List | Glossary On
Versions: 1 2 3 4 5 6 7 8 9 10 11 12 13 14 15 16 17 18 19 20 21 22 23 24 25 26 27 28 29 30 31 32 33 34 35 36 37 38 39 40 41 42 43 44 45 46 47 48 49 50
000
FTUS43 KMKX 020520
TAFENW
TAF
KENW 020520Z 0206/0306 21005KT P6SM FEW080 BKN250
     FM020800 22006KT 6SM BR FEW100 BKN250
      TEMPO 0208/0212 4SM BR SCT100
     FM021300 24006KT P6SM SCT100 BKN250
     FM021700 23010KT P6SM SCT040 BKN200
     FM030300 18005KT P6SM VCTS SCT040CB BKN100 PROB30 0304/0306 5SM
      TSRA BKN040CB=

USA.gov is the U.S. government's official web portal to all federal, state and local government web resources and services.